sensor_id;sensor_type;location;lat;lon;timestamp;temperature;humidity
55711;DHT22;41612;51.994;5.880;2022-09-09T00:02:21;16.40;79.60
55711;DHT22;41612;51.994;5.880;2022-09-09T00:07:51;16.40;80.10
55711;DHT22;41612;51.994;5.880;2022-09-09T00:10:40;16.30;79.70
55711;DHT22;41612;51.994;5.880;2022-09-09T00:13:16;16.40;80.30
55711;DHT22;41612;51.994;5.880;2022-09-09T00:21:14;16.40;79.90
55711;DHT22;41612;51.994;5.880;2022-09-09T00:23:55;16.40;79.60
55711;DHT22;41612;51.994;5.880;2022-09-09T00:31:38;16.50;79.40
55711;DHT22;41612;51.994;5.880;2022-09-09T00:34:21;16.50;78.90
55711;DHT22;41612;51.994;5.880;2022-09-09T00:36:52;16.50;79.30
55711;DHT22;41612;51.994;5.880;2022-09-09T00:39:46;16.50;79.20
55711;DHT22;41612;51.994;5.880;2022-09-09T00:42:44;16.50;78.90
55711;DHT22;41612;51.994;5.880;2022-09-09T00:45:57;16.60;79.10
55711;DHT22;41612;51.994;5.880;2022-09-09T00:48:13;16.50;79.80
55711;DHT22;41612;51.994;5.880;2022-09-09T00:51:02;16.40;79.50
55711;DHT22;41612;51.994;5.880;2022-09-09T00:56:35;16.40;79.40
55711;DHT22;41612;51.994;5.880;2022-09-09T00:59:16;16.30;80.10
55711;DHT22;41612;51.994;5.880;2022-09-09T01:01:44;16.30;79.70
55711;DHT22;41612;51.994;5.880;2022-09-09T01:04:18;16.20;80.70
55711;DHT22;41612;51.994;5.880;2022-09-09T01:06:51;16.20;80.50
55711;DHT22;41612;51.994;5.880;2022-09-09T01:12:42;16.20;79.50
55711;DHT22;41612;51.994;5.880;2022-09-09T01:15:17;16.20;79.60
55711;DHT22;41612;51.994;5.880;2022-09-09T01:18:04;16.20;79.60
55711;DHT22;41612;51.994;5.880;2022-09-09T01:20:53;16.20;79.30
55711;DHT22;41612;51.994;5.880;2022-09-09T01:26:56;16.10;79.20
55711;DHT22;41612;51.994;5.880;2022-09-09T01:29:25;16.10;79.00
55711;DHT22;41612;51.994;5.880;2022-09-09T01:32:00;16.10;79.10
55711;DHT22;41612;51.994;5.880;2022-09-09T01:34:33;16.00;79.30
55711;DHT22;41612;51.994;5.880;2022-09-09T01:39:42;15.90;79.30
55711;DHT22;41612;51.994;5.880;2022-09-09T01:42:18;16.00;79.00
55711;DHT22;41612;51.994;5.880;2022-09-09T01:44:45;15.90;79.50
55711;DHT22;41612;51.994;5.880;2022-09-09T01:47:15;15.90;79.20
55711;DHT22;41612;51.994;5.880;2022-09-09T01:49:59;15.90;79.10
55711;DHT22;41612;51.994;5.880;2022-09-09T01:52:28;15.90;79.60
55711;DHT22;41612;51.994;5.880;2022-09-09T01:54:55;15.80;79.50
55711;DHT22;41612;51.994;5.880;2022-09-09T01:57:33;15.80;79.70
55711;DHT22;41612;51.994;5.880;2022-09-09T02:00:10;15.80;79.90
55711;DHT22;41612;51.994;5.880;2022-09-09T02:08:44;15.70;80.60
55711;DHT22;41612;51.994;5.880;2022-09-09T02:11:33;15.70;80.10
55711;DHT22;41612;51.994;5.880;2022-09-09T02:14:10;15.70;80.30
55711;DHT22;41612;51.994;5.880;2022-09-09T02:16:51;15.70;79.60
55711;DHT22;41612;51.994;5.880;2022-09-09T02:19:27;15.70;80.10
55711;DHT22;41612;51.994;5.880;2022-09-09T02:22:05;15.70;79.60
55711;DHT22;41612;51.994;5.880;2022-09-09T02:24:47;15.70;79.50
55711;DHT22;41612;51.994;5.880;2022-09-09T02:27:20;15.70;79.40
55711;DHT22;41612;51.994;5.880;2022-09-09T02:29:49;15.70;79.70
55711;DHT22;41612;51.994;5.880;2022-09-09T02:32:23;15.60;79.60
55711;DHT22;41612;51.994;5.880;2022-09-09T02:35:25;15.60;79.40
55711;DHT22;41612;51.994;5.880;2022-09-09T02:37:57;15.70;79.30
55711;DHT22;41612;51.994;5.880;2022-09-09T02:40:24;15.60;79.50
55711;DHT22;41612;51.994;5.880;2022-09-09T02:42:57;15.60;79.50
55711;DHT22;41612;51.994;5.880;2022-09-09T02:45:31;15.50;79.50
55711;DHT22;41612;51.994;5.880;2022-09-09T02:48:14;15.50;79.40
55711;DHT22;41612;51.994;5.880;2022-09-09T02:51:04;15.50;79.10
55711;DHT22;41612;51.994;5.880;2022-09-09T02:56:16;15.50;78.90
55711;DHT22;41612;51.994;5.880;2022-09-09T02:58:45;15.50;78.90
55711;DHT22;41612;51.994;5.880;2022-09-09T03:01:14;15.50;79.30
55711;DHT22;41612;51.994;5.880;2022-09-09T03:03:40;15.50;79.00
55711;DHT22;41612;51.994;5.880;2022-09-09T03:06:11;15.50;78.90
55711;DHT22;41612;51.994;5.880;2022-09-09T03:08:39;15.50;78.80
55711;DHT22;41612;51.994;5.880;2022-09-09T03:11:06;15.50;78.80
55711;DHT22;41612;51.994;5.880;2022-09-09T03:13:35;15.50;79.10
55711;DHT22;41612;51.994;5.880;2022-09-09T03:16:01;15.50;79.00
55711;DHT22;41612;51.994;5.880;2022-09-09T03:18:33;15.40;78.90
55711;DHT22;41612;51.994;5.880;2022-09-09T03:21:03;15.40;78.70
55711;DHT22;41612;51.994;5.880;2022-09-09T03:23:29;15.40;78.70
55711;DHT22;41612;51.994;5.880;2022-09-09T03:25:56;15.50;78.60
55711;DHT22;41612;51.994;5.880;2022-09-09T03:28:31;15.50;79.00
55711;DHT22;41612;51.994;5.880;2022-09-09T03:31:05;15.40;78.80
55711;DHT22;41612;51.994;5.880;2022-09-09T03:33:39;15.40;78.80
55711;DHT22;41612;51.994;5.880;2022-09-09T03:36:07;15.40;79.20
55711;DHT22;41612;51.994;5.880;2022-09-09T03:38:42;15.40;79.40
55711;DHT22;41612;51.994;5.880;2022-09-09T03:41:08;15.40;79.10
55711;DHT22;41612;51.994;5.880;2022-09-09T03:43:35;15.40;78.90
55711;DHT22;41612;51.994;5.880;2022-09-09T03:46:02;15.40;78.70
55711;DHT22;41612;51.994;5.880;2022-09-09T03:48:28;15.30;80.10
55711;DHT22;41612;51.994;5.880;2022-09-09T03:50:55;15.30;79.70
55711;DHT22;41612;51.994;5.880;2022-09-09T03:53:27;15.30;80.00
55711;DHT22;41612;51.994;5.880;2022-09-09T03:55:55;15.30;80.70
55711;DHT22;41612;51.994;5.880;2022-09-09T03:58:23;15.30;79.60
55711;DHT22;41612;51.994;5.880;2022-09-09T04:01:05;15.50;79.20
55711;DHT22;41612;51.994;5.880;2022-09-09T04:03:32;15.50;80.40
55711;DHT22;41612;51.994;5.880;2022-09-09T04:06:02;15.50;79.20
55711;DHT22;41612;51.994;5.880;2022-09-09T04:08:29;15.50;79.20
55711;DHT22;41612;51.994;5.880;2022-09-09T04:11:00;15.60;79.40
55711;DHT22;41612;51.994;5.880;2022-09-09T04:13:28;15.60;79.60
55711;DHT22;41612;51.994;5.880;2022-09-09T04:15:58;15.50;80.30
55711;DHT22;41612;51.994;5.880;2022-09-09T04:18:25;15.60;79.40
55711;DHT22;41612;51.994;5.880;2022-09-09T04:20:52;15.50;79.70
55711;DHT22;41612;51.994;5.880;2022-09-09T04:23:21;15.50;79.10
55711;DHT22;41612;51.994;5.880;2022-09-09T04:25:48;15.60;78.70
55711;DHT22;41612;51.994;5.880;2022-09-09T04:28:16;15.60;78.70
55711;DHT22;41612;51.994;5.880;2022-09-09T04:30:43;15.60;78.50
55711;DHT22;41612;51.994;5.880;2022-09-09T04:33:10;15.70;78.90
55711;DHT22;41612;51.994;5.880;2022-09-09T04:35:36;15.70;79.10
55711;DHT22;41612;51.994;5.880;2022-09-09T04:38:03;15.70;79.20
55711;DHT22;41612;51.994;5.880;2022-09-09T04:40:55;15.70;79.00
55711;DHT22;41612;51.994;5.880;2022-09-09T04:43:24;15.80;79.20
55711;DHT22;41612;51.994;5.880;2022-09-09T04:45:53;15.80;79.30
55711;DHT22;41612;51.994;5.880;2022-09-09T04:48:22;15.80;79.50
55711;DHT22;41612;51.994;5.880;2022-09-09T04:51:02;15.80;79.80
55711;DHT22;41612;51.994;5.880;2022-09-09T04:53:32;15.80;79.90
55711;DHT22;41612;51.994;5.880;2022-09-09T04:56:05;15.80;80.20
55711;DHT22;41612;51.994;5.880;2022-09-09T04:59:00;15.80;79.40
55711;DHT22;41612;51.994;5.880;2022-09-09T05:01:52;15.80;79.80
55711;DHT22;41612;51.994;5.880;2022-09-09T05:08:29;15.80;78.70
55711;DHT22;41612;51.994;5.880;2022-09-09T05:14:42;15.90;77.40
55711;DHT22;41612;51.994;5.880;2022-09-09T05:17:14;16.00;77.00
55711;DHT22;41612;51.994;5.880;2022-09-09T05:19:40;16.00;77.00
55711;DHT22;41612;51.994;5.880;2022-09-09T05:22:35;16.00;78.20
55711;DHT22;41612;51.994;5.880;2022-09-09T05:52:34;16.00;79.10
55711;DHT22;41612;51.994;5.880;2022-09-09T05:55:00;16.00;78.40
55711;DHT22;41612;51.994;5.880;2022-09-09T05:57:38;16.10;78.90
55711;DHT22;41612;51.994;5.880;2022-09-09T06:00:05;16.00;79.60
55711;DHT22;41612;51.994;5.880;2022-09-09T06:09:06;16.00;81.40
55711;DHT22;41612;51.994;5.880;2022-09-09T06:12:06;16.10;81.20
55711;DHT22;41612;51.994;5.880;2022-09-09T06:14:37;16.10;80.80
55711;DHT22;41612;51.994;5.880;2022-09-09T06:17:05;16.20;80.50
55711;DHT22;41612;51.994;5.880;2022-09-09T06:19:35;16.20;81.00
55711;DHT22;41612;51.994;5.880;2022-09-09T06:22:16;16.20;80.70
55711;DHT22;41612;51.994;5.880;2022-09-09T06:24:42;16.20;81.10
55711;DHT22;41612;51.994;5.880;2022-09-09T06:27:10;16.30;81.70
55711;DHT22;41612;51.994;5.880;2022-09-09T06:29:36;16.30;82.10
55711;DHT22;41612;51.994;5.880;2022-09-09T06:32:03;16.30;81.60
55711;DHT22;41612;51.994;5.880;2022-09-09T06:34:28;16.40;82.20
55711;DHT22;41612;51.994;5.880;2022-09-09T06:36:57;16.40;81.50
55711;DHT22;41612;51.994;5.880;2022-09-09T06:39:29;16.40;82.10
55711;DHT22;41612;51.994;5.880;2022-09-09T06:42:30;16.40;81.60
55711;DHT22;41612;51.994;5.880;2022-09-09T06:45:29;16.40;81.40
55711;DHT22;41612;51.994;5.880;2022-09-09T06:47:58;16.40;82.20
55711;DHT22;41612;51.994;5.880;2022-09-09T06:50:26;16.50;80.70
55711;DHT22;41612;51.994;5.880;2022-09-09T06:52:57;16.50;80.60
55711;DHT22;41612;51.994;5.880;2022-09-09T06:55:25;16.60;81.50
55711;DHT22;41612;51.994;5.880;2022-09-09T06:57:51;16.70;78.60
55711;DHT22;41612;51.994;5.880;2022-09-09T07:00:22;16.70;80.10
55711;DHT22;41612;51.994;5.880;2022-09-09T07:02:51;16.80;80.00
55711;DHT22;41612;51.994;5.880;2022-09-09T07:05:16;16.80;79.90
55711;DHT22;41612;51.994;5.880;2022-09-09T07:07:44;16.80;80.70
55711;DHT22;41612;51.994;5.880;2022-09-09T07:10:12;16.90;81.30
55711;DHT22;41612;51.994;5.880;2022-09-09T07:12:37;17.00;81.00
55711;DHT22;41612;51.994;5.880;2022-09-09T07:15:04;17.10;80.90
55711;DHT22;41612;51.994;5.880;2022-09-09T07:17:30;17.20;80.30
55711;DHT22;41612;51.994;5.880;2022-09-09T07:19:58;17.20;80.20
55711;DHT22;41612;51.994;5.880;2022-09-09T07:22:28;17.20;79.10
55711;DHT22;41612;51.994;5.880;2022-09-09T07:24:54;17.30;79.30
55711;DHT22;41612;51.994;5.880;2022-09-09T07:27:20;17.30;78.30
55711;DHT22;41612;51.994;5.880;2022-09-09T07:29:47;17.30;78.00
55711;DHT22;41612;51.994;5.880;2022-09-09T07:32:20;17.30;79.10
55711;DHT22;41612;51.994;5.880;2022-09-09T07:34:46;17.30;77.50
55711;DHT22;41612;51.994;5.880;2022-09-09T07:37:13;17.40;78.10
55711;DHT22;41612;51.994;5.880;2022-09-09T07:39:42;17.50;78.70
55711;DHT22;41612;51.994;5.880;2022-09-09T07:42:08;17.60;77.30
55711;DHT22;41612;51.994;5.880;2022-09-09T07:44:37;17.70;78.30
55711;DHT22;41612;51.994;5.880;2022-09-09T07:47:11;17.80;77.50
55711;DHT22;41612;51.994;5.880;2022-09-09T07:49:44;18.00;75.70
55711;DHT22;41612;51.994;5.880;2022-09-09T07:52:13;18.00;75.50
55711;DHT22;41612;51.994;5.880;2022-09-09T07:54:42;18.00;76.00
55711;DHT22;41612;51.994;5.880;2022-09-09T07:57:09;17.80;75.70
55711;DHT22;41612;51.994;5.880;2022-09-09T07:59:37;17.80;76.80
55711;DHT22;41612;51.994;5.880;2022-09-09T08:02:03;17.80;77.00
55711;DHT22;41612;51.994;5.880;2022-09-09T08:04:31;17.70;75.60
55711;DHT22;41612;51.994;5.880;2022-09-09T08:07:00;17.80;75.30
55711;DHT22;41612;51.994;5.880;2022-09-09T08:09:28;17.90;75.50
55711;DHT22;41612;51.994;5.880;2022-09-09T08:11:59;18.00;74.60
55711;DHT22;41612;51.994;5.880;2022-09-09T08:14:29;18.00;75.00
55711;DHT22;41612;51.994;5.880;2022-09-09T08:16:56;18.00;73.80
55711;DHT22;41612;51.994;5.880;2022-09-09T08:19:25;18.00;75.00
55711;DHT22;41612;51.994;5.880;2022-09-09T08:21:52;18.00;75.70
55711;DHT22;41612;51.994;5.880;2022-09-09T08:24:18;18.00;75.10
55711;DHT22;41612;51.994;5.880;2022-09-09T08:26:48;17.90;75.30
55711;DHT22;41612;51.994;5.880;2022-09-09T08:29:16;17.90;74.20
55711;DHT22;41612;51.994;5.880;2022-09-09T08:31:44;17.90;75.50
55711;DHT22;41612;51.994;5.880;2022-09-09T08:34:16;17.90;75.80
55711;DHT22;41612;51.994;5.880;2022-09-09T08:36:44;17.90;74.30
55711;DHT22;41612;51.994;5.880;2022-09-09T08:39:19;17.90;75.80
55711;DHT22;41612;51.994;5.880;2022-09-09T08:47:55;17.70;75.60
55711;DHT22;41612;51.994;5.880;2022-09-09T08:50:32;17.80;74.30
55711;DHT22;41612;51.994;5.880;2022-09-09T08:53:44;17.90;74.20
55711;DHT22;41612;51.994;5.880;2022-09-09T08:56:24;18.00;75.10
55711;DHT22;41612;51.994;5.880;2022-09-09T08:59:00;18.00;74.40
55711;DHT22;41612;51.994;5.880;2022-09-09T09:04:43;18.10;74.50
55711;DHT22;41612;51.994;5.880;2022-09-09T09:07:23;18.00;73.60
55711;DHT22;41612;51.994;5.880;2022-09-09T09:13:27;18.00;73.40
55711;DHT22;41612;51.994;5.880;2022-09-09T09:16:10;18.20;72.70
55711;DHT22;41612;51.994;5.880;2022-09-09T09:18:40;18.30;71.80
55711;DHT22;41612;51.994;5.880;2022-09-09T09:21:41;18.30;71.80
55711;DHT22;41612;51.994;5.880;2022-09-09T09:24:20;18.30;71.10
55711;DHT22;41612;51.994;5.880;2022-09-09T09:26:50;18.20;72.10
55711;DHT22;41612;51.994;5.880;2022-09-09T09:29:19;18.20;71.80
55711;DHT22;41612;51.994;5.880;2022-09-09T09:31:56;18.20;72.40
55711;DHT22;41612;51.994;5.880;2022-09-09T09:34:25;18.10;72.20
55711;DHT22;41612;51.994;5.880;2022-09-09T09:43:00;18.00;72.90
55711;DHT22;41612;51.994;5.880;2022-09-09T09:45:49;18.10;72.80
55711;DHT22;41612;51.994;5.880;2022-09-09T09:48:19;18.10;72.00
55711;DHT22;41612;51.994;5.880;2022-09-09T09:51:11;18.20;72.00
55711;DHT22;41612;51.994;5.880;2022-09-09T09:53:38;18.30;71.80
55711;DHT22;41612;51.994;5.880;2022-09-09T09:56:46;18.50;71.50
55711;DHT22;41612;51.994;5.880;2022-09-09T09:59:40;18.70;70.50
55711;DHT22;41612;51.994;5.880;2022-09-09T10:02:31;18.70;70.30
55711;DHT22;41612;51.994;5.880;2022-09-09T10:05:18;18.80;70.10
55711;DHT22;41612;51.994;5.880;2022-09-09T10:08:20;18.80;70.00
55711;DHT22;41612;51.994;5.880;2022-09-09T10:11:30;18.70;70.20
55711;DHT22;41612;51.994;5.880;2022-09-09T10:19:50;18.50;70.70
55711;DHT22;41612;51.994;5.880;2022-09-09T10:22:33;18.50;70.50
55711;DHT22;41612;51.994;5.880;2022-09-09T10:33:13;18.40;71.10
55711;DHT22;41612;51.994;5.880;2022-09-09T10:35:56;18.50;70.80
55711;DHT22;41612;51.994;5.880;2022-09-09T10:38:42;18.70;70.40
55711;DHT22;41612;51.994;5.880;2022-09-09T10:42:02;18.70;70.10
55711;DHT22;41612;51.994;5.880;2022-09-09T10:45:03;18.70;69.70
55711;DHT22;41612;51.994;5.880;2022-09-09T10:55:43;18.60;70.20
55711;DHT22;41612;51.994;5.880;2022-09-09T10:58:16;18.60;71.10
55711;DHT22;41612;51.994;5.880;2022-09-09T11:00:48;18.80;70.00
55711;DHT22;41612;51.994;5.880;2022-09-09T11:03:20;18.80;69.30
55711;DHT22;41612;51.994;5.880;2022-09-09T11:05:57;18.80;70.20
55711;DHT22;41612;51.994;5.880;2022-09-09T11:08:30;18.80;70.10
55711;DHT22;41612;51.994;5.880;2022-09-09T11:11:02;18.70;70.00
55711;DHT22;41612;51.994;5.880;2022-09-09T11:14:13;18.70;70.40
55711;DHT22;41612;51.994;5.880;2022-09-09T11:16:52;18.60;70.80
55711;DHT22;41612;51.994;5.880;2022-09-09T11:19:36;18.60;70.80
55711;DHT22;41612;51.994;5.880;2022-09-09T11:22:43;18.30;72.40
55711;DHT22;41612;51.994;5.880;2022-09-09T11:28:20;17.90;75.70
55711;DHT22;41612;51.994;5.880;2022-09-09T11:39:32;18.10;76.80
55711;DHT22;41612;51.994;5.880;2022-09-09T11:42:23;18.20;75.10
55711;DHT22;41612;51.994;5.880;2022-09-09T11:44:52;18.20;75.90
55711;DHT22;41612;51.994;5.880;2022-09-09T11:50:06;18.60;74.30
55711;DHT22;41612;51.994;5.880;2022-09-09T11:52:39;18.80;74.00
55711;DHT22;41612;51.994;5.880;2022-09-09T11:58:05;18.80;72.60
55711;DHT22;41612;51.994;5.880;2022-09-09T12:00:43;18.80;72.20
55711;DHT22;41612;51.994;5.880;2022-09-09T12:03:45;18.60;74.10
55711;DHT22;41612;51.994;5.880;2022-09-09T12:06:31;18.60;74.40
55711;DHT22;41612;51.994;5.880;2022-09-09T12:11:50;19.70;72.10
55711;DHT22;41612;51.994;5.880;2022-09-09T12:16:47;19.80;71.10
55711;DHT22;41612;51.994;5.880;2022-09-09T12:19:21;19.70;70.50
55711;DHT22;41612;51.994;5.880;2022-09-09T12:22:07;19.50;71.60
55711;DHT22;41612;51.994;5.880;2022-09-09T12:25:01;19.10;73.60
55711;DHT22;41612;51.994;5.880;2022-09-09T12:27:42;19.00;73.10
55711;DHT22;41612;51.994;5.880;2022-09-09T12:30:14;18.90;73.50
55711;DHT22;41612;51.994;5.880;2022-09-09T12:32:40;18.80;74.00
55711;DHT22;41612;51.994;5.880;2022-09-09T12:35:12;18.80;72.60
55711;DHT22;41612;51.994;5.880;2022-09-09T12:40:27;19.10;73.20
55711;DHT22;41612;51.994;5.880;2022-09-09T12:42:57;19.30;72.30
55711;DHT22;41612;51.994;5.880;2022-09-09T12:45:30;19.40;70.70
55711;DHT22;41612;51.994;5.880;2022-09-09T12:48:06;19.40;71.60
55711;DHT22;41612;51.994;5.880;2022-09-09T12:50:38;19.60;71.40
55711;DHT22;41612;51.994;5.880;2022-09-09T12:53:21;19.70;70.70
55711;DHT22;41612;51.994;5.880;2022-09-09T12:56:04;19.60;70.30
55711;DHT22;41612;51.994;5.880;2022-09-09T12:58:33;19.40;70.80
55711;DHT22;41612;51.994;5.880;2022-09-09T13:01:01;19.20;71.60
55711;DHT22;41612;51.994;5.880;2022-09-09T13:03:30;19.00;72.20
55711;DHT22;41612;51.994;5.880;2022-09-09T13:06:11;18.90;72.70
55711;DHT22;41612;51.994;5.880;2022-09-09T13:08:37;18.90;72.10
55711;DHT22;41612;51.994;5.880;2022-09-09T13:11:06;18.80;73.00
55711;DHT22;41612;51.994;5.880;2022-09-09T13:13:37;18.80;73.90
55711;DHT22;41612;51.994;5.880;2022-09-09T13:16:05;18.70;74.60
55711;DHT22;41612;51.994;5.880;2022-09-09T13:18:36;18.60;75.20
55711;DHT22;41612;51.994;5.880;2022-09-09T13:21:03;18.70;76.00
55711;DHT22;41612;51.994;5.880;2022-09-09T13:23:32;18.90;75.00
55711;DHT22;41612;51.994;5.880;2022-09-09T13:26:00;19.20;74.70
55711;DHT22;41612;51.994;5.880;2022-09-09T13:28:28;19.60;73.40
55711;DHT22;41612;51.994;5.880;2022-09-09T13:31:19;19.90;72.20
55711;DHT22;41612;51.994;5.880;2022-09-09T13:33:51;20.20;71.80
55711;DHT22;41612;51.994;5.880;2022-09-09T13:36:31;20.20;70.20
55711;DHT22;41612;51.994;5.880;2022-09-09T13:38:59;20.20;68.90
55711;DHT22;41612;51.994;5.880;2022-09-09T13:41:36;20.30;70.10
55711;DHT22;41612;51.994;5.880;2022-09-09T13:44:19;20.20;69.60
55711;DHT22;41612;51.994;5.880;2022-09-09T13:46:59;20.20;70.30
55711;DHT22;41612;51.994;5.880;2022-09-09T13:49:29;20.00;69.70
55711;DHT22;41612;51.994;5.880;2022-09-09T13:52:10;19.80;70.90
55711;DHT22;41612;51.994;5.880;2022-09-09T13:54:37;19.70;71.60
55711;DHT22;41612;51.994;5.880;2022-09-09T13:57:03;19.60;72.50
55711;DHT22;41612;51.994;5.880;2022-09-09T13:59:30;19.50;72.10
55711;DHT22;41612;51.994;5.880;2022-09-09T14:01:57;19.40;72.50
55711;DHT22;41612;51.994;5.880;2022-09-09T14:04:23;19.30;72.50
55711;DHT22;41612;51.994;5.880;2022-09-09T14:06:49;19.20;72.20
55711;DHT22;41612;51.994;5.880;2022-09-09T14:09:17;19.20;71.90
55711;DHT22;41612;51.994;5.880;2022-09-09T14:11:44;19.20;72.50
55711;DHT22;41612;51.994;5.880;2022-09-09T14:14:11;19.60;72.20
55711;DHT22;41612;51.994;5.880;2022-09-09T14:16:37;20.40;68.80
55711;DHT22;41612;51.994;5.880;2022-09-09T14:19:03;20.80;67.50
55711;DHT22;41612;51.994;5.880;2022-09-09T14:21:29;20.70;65.60
55711;DHT22;41612;51.994;5.880;2022-09-09T14:23:55;20.30;66.70
55711;DHT22;41612;51.994;5.880;2022-09-09T14:26:24;20.10;67.50
55711;DHT22;41612;51.994;5.880;2022-09-09T14:28:50;19.80;68.80
55711;DHT22;41612;51.994;5.880;2022-09-09T14:31:17;19.60;69.20
55711;DHT22;41612;51.994;5.880;2022-09-09T14:33:43;19.50;69.50
55711;DHT22;41612;51.994;5.880;2022-09-09T14:36:10;19.40;70.30
55711;DHT22;41612;51.994;5.880;2022-09-09T14:38:37;19.40;70.80
55711;DHT22;41612;51.994;5.880;2022-09-09T14:41:10;19.40;70.90
55711;DHT22;41612;51.994;5.880;2022-09-09T14:43:39;19.30;70.10
55711;DHT22;41612;51.994;5.880;2022-09-09T14:46:06;19.40;70.90
55711;DHT22;41612;51.994;5.880;2022-09-09T14:48:32;19.40;70.80
55711;DHT22;41612;51.994;5.880;2022-09-09T14:51:10;19.50;69.40
55711;DHT22;41612;51.994;5.880;2022-09-09T14:53:39;19.80;69.90
55711;DHT22;41612;51.994;5.880;2022-09-09T14:56:13;20.00;69.40
55711;DHT22;41612;51.994;5.880;2022-09-09T14:58:39;20.00;69.50
55711;DHT22;41612;51.994;5.880;2022-09-09T15:01:20;20.00;68.60
55711;DHT22;41612;51.994;5.880;2022-09-09T15:03:51;20.10;69.10
55711;DHT22;41612;51.994;5.880;2022-09-09T15:06:17;20.10;69.90
55711;DHT22;41612;51.994;5.880;2022-09-09T15:08:44;19.90;69.80
55711;DHT22;41612;51.994;5.880;2022-09-09T15:11:11;19.70;70.10
55711;DHT22;41612;51.994;5.880;2022-09-09T15:13:39;19.70;70.20
55711;DHT22;41612;51.994;5.880;2022-09-09T15:18:32;19.70;71.10
55711;DHT22;41612;51.994;5.880;2022-09-09T15:20:59;19.50;70.60
55711;DHT22;41612;51.994;5.880;2022-09-09T15:23:27;19.50;70.70
55711;DHT22;41612;51.994;5.880;2022-09-09T15:25:54;19.40;71.20
55711;DHT22;41612;51.994;5.880;2022-09-09T15:28:22;19.30;72.60
55711;DHT22;41612;51.994;5.880;2022-09-09T15:30:52;19.20;74.00
55711;DHT22;41612;51.994;5.880;2022-09-09T15:33:22;19.00;74.80
55711;DHT22;41612;51.994;5.880;2022-09-09T15:35:48;18.90;74.60
55711;DHT22;41612;51.994;5.880;2022-09-09T15:38:19;18.80;75.30
55711;DHT22;41612;51.994;5.880;2022-09-09T15:41:08;18.80;74.30
55711;DHT22;41612;51.994;5.880;2022-09-09T15:43:51;18.80;73.60
55711;DHT22;41612;51.994;5.880;2022-09-09T15:48:44;18.90;72.80
55711;DHT22;41612;51.994;5.880;2022-09-09T15:51:10;18.90;71.90
55711;DHT22;41612;51.994;5.880;2022-09-09T15:53:37;19.00;70.60
55711;DHT22;41612;51.994;5.880;2022-09-09T15:56:05;19.00;70.00
55711;DHT22;41612;51.994;5.880;2022-09-09T15:58:32;19.00;70.00
55711;DHT22;41612;51.994;5.880;2022-09-09T16:01:06;19.00;70.00
55711;DHT22;41612;51.994;5.880;2022-09-09T16:03:36;19.00;70.10
55711;DHT22;41612;51.994;5.880;2022-09-09T16:06:03;18.90;70.90
55711;DHT22;41612;51.994;5.880;2022-09-09T16:08:34;18.70;74.70
55711;DHT22;41612;51.994;5.880;2022-09-09T16:11:14;18.30;72.50
55711;DHT22;41612;51.994;5.880;2022-09-09T16:13:42;18.00;73.40
55711;DHT22;41612;51.994;5.880;2022-09-09T16:16:10;17.70;74.80
55711;DHT22;41612;51.994;5.880;2022-09-09T16:18:40;17.60;75.20
55711;DHT22;41612;51.994;5.880;2022-09-09T16:21:17;17.40;75.80
55711;DHT22;41612;51.994;5.880;2022-09-09T16:23:44;17.50;75.90
55711;DHT22;41612;51.994;5.880;2022-09-09T16:26:14;17.50;75.60
55711;DHT22;41612;51.994;5.880;2022-09-09T16:28:40;17.50;76.20
55711;DHT22;41612;51.994;5.880;2022-09-09T16:31:08;17.50;75.80
55711;DHT22;41612;51.994;5.880;2022-09-09T16:33:36;17.60;75.50
55711;DHT22;41612;51.994;5.880;2022-09-09T16:36:09;17.70;75.50
55711;DHT22;41612;51.994;5.880;2022-09-09T16:38:36;17.80;76.20
55711;DHT22;41612;51.994;5.880;2022-09-09T16:41:10;17.80;76.50
55711;DHT22;41612;51.994;5.880;2022-09-09T17:49:38;17.40;78.40
55711;DHT22;41612;51.994;5.880;2022-09-09T19:40:21;16.80;81.40
55711;DHT22;41612;51.994;5.880;2022-09-09T19:42:53;16.80;80.40
55711;DHT22;41612;51.994;5.880;2022-09-09T19:45:28;16.80;80.40
55711;DHT22;41612;51.994;5.880;2022-09-09T19:47:56;16.80;79.70
55711;DHT22;41612;51.994;5.880;2022-09-09T19:50:35;16.80;80.00
55711;DHT22;41612;51.994;5.880;2022-09-09T19:53:01;16.80;79.50
55711;DHT22;41612;51.994;5.880;2022-09-09T19:55:31;16.80;80.00
55711;DHT22;41612;51.994;5.880;2022-09-09T19:58:22;16.80;79.50
55711;DHT22;41612;51.994;5.880;2022-09-09T20:00:48;16.80;79.20
55711;DHT22;41612;51.994;5.880;2022-09-09T20:03:22;16.80;78.90
55711;DHT22;41612;51.994;5.880;2022-09-09T20:05:53;16.90;78.80
55711;DHT22;41612;51.994;5.880;2022-09-09T20:08:22;16.90;78.60
55711;DHT22;41612;51.994;5.880;2022-09-09T20:10:53;16.90;78.20
55711;DHT22;41612;51.994;5.880;2022-09-09T20:13:22;16.90;77.60
55711;DHT22;41612;51.994;5.880;2022-09-09T20:16:03;16.90;78.10
55711;DHT22;41612;51.994;5.880;2022-09-09T20:18:31;16.80;79.00
55711;DHT22;41612;51.994;5.880;2022-09-09T20:20:59;16.80;79.10
55711;DHT22;41612;51.994;5.880;2022-09-09T20:23:28;16.80;79.40
55711;DHT22;41612;51.994;5.880;2022-09-09T20:25:54;16.90;78.50
55711;DHT22;41612;51.994;5.880;2022-09-09T20:28:21;16.90;79.10
55711;DHT22;41612;51.994;5.880;2022-09-09T20:30:52;16.90;78.60
55711;DHT22;41612;51.994;5.880;2022-09-09T20:33:18;16.90;78.30
55711;DHT22;41612;51.994;5.880;2022-09-09T20:35:45;16.90;79.00
55711;DHT22;41612;51.994;5.880;2022-09-09T20:38:11;16.80;80.10
55711;DHT22;41612;51.994;5.880;2022-09-09T20:40:37;16.80;80.20
55711;DHT22;41612;51.994;5.880;2022-09-09T20:43:04;16.70;80.30
55711;DHT22;41612;51.994;5.880;2022-09-09T20:45:34;16.70;80.70
55711;DHT22;41612;51.994;5.880;2022-09-09T20:48:06;16.50;81.00
55711;DHT22;41612;51.994;5.880;2022-09-09T20:50:34;16.50;80.50
55711;DHT22;41612;51.994;5.880;2022-09-09T20:53:02;16.60;79.90
55711;DHT22;41612;51.994;5.880;2022-09-09T20:55:30;16.60;79.30
55711;DHT22;41612;51.994;5.880;2022-09-09T20:57:59;16.70;79.90
55711;DHT22;41612;51.994;5.880;2022-09-09T21:00:25;16.70;79.50
55711;DHT22;41612;51.994;5.880;2022-09-09T21:02:51;16.70;80.00
55711;DHT22;41612;51.994;5.880;2022-09-09T21:05:17;16.70;79.60
55711;DHT22;41612;51.994;5.880;2022-09-09T21:07:44;16.70;79.10
55711;DHT22;41612;51.994;5.880;2022-09-09T21:10:10;16.70;80.30
55711;DHT22;41612;51.994;5.880;2022-09-09T21:12:36;16.70;79.40
55711;DHT22;41612;51.994;5.880;2022-09-09T21:15:03;16.60;79.80
55711;DHT22;41612;51.994;5.880;2022-09-09T21:17:28;16.50;81.90
55711;DHT22;41612;51.994;5.880;2022-09-09T21:19:54;16.50;80.70
55711;DHT22;41612;51.994;5.880;2022-09-09T21:22:20;16.50;81.00
55711;DHT22;41612;51.994;5.880;2022-09-09T21:24:46;16.50;80.70
55711;DHT22;41612;51.994;5.880;2022-09-09T21:27:11;16.50;80.00
55711;DHT22;41612;51.994;5.880;2022-09-09T21:29:37;16.50;80.20